»·PEaware :: N299SM KCNO-KSBP

N299SM :: KCNO-KSBP

FLIGHT INFORMATION

Flight Status: Arrived
Operator: Privately registered:
United States
More flights under this callsign
Pilot: Piotr R. (1117)
Aircraft: CESSNA 210 CENTURION
(C210)
More flights by this aircraft type
Origin: KCNO Chino
United States
Destination: KSBP San Luis Co Regl
United States
More flights between these airports :: More routes between these airports
Route: +
File this flight plan on PilotEdge
Remarks:
Altitude:
(Current/Filed)
0ft
Speed:
(Current/Filed)
0kts
Departed: 01-Oct-12 11:22 AM
Arrived: 01-Oct-12 12:25 PM
Distance/Time
Traveled:
167nm/1:02
Distance/Time
To Go:
Arrived

Flight Plot

Page will automatically refresh every two minutes.

Flight plan parsing failed; only flown route is shown


Map Options




Map Legend


Flown Route
Filed Route
Departure Airport
Arrival Airport
Navaid (VOR, NDB)
Fix

Horizontal Profiles

Position Reports

Time Latitude Longitude Heading Altitude Ground
Speed
01-Oct-12 11:07 33.979673 -117.640297 358 655ft 0kts
01-Oct-12 11:08 33.979673 -117.640297 359 655ft 0kts
01-Oct-12 11:09 33.979194 -117.639528 93 655ft 5kts
01-Oct-12 11:10 33.978076 -117.639269 173 655ft 0kts
01-Oct-12 11:11 33.978056 -117.639268 178 655ft 0kts
01-Oct-12 11:12 33.977967 -117.639267 179 655ft 5kts
01-Oct-12 11:13 33.977336 -117.638821 92 655ft 7kts
01-Oct-12 11:14 33.977326 -117.636291 90 655ft 10kts
01-Oct-12 11:15 33.977311 -117.632896 91 655ft 9kts
01-Oct-12 11:16 33.977303 -117.631937 87 655ft 0kts
01-Oct-12 11:17 33.976522 -117.631057 179 655ft 4kts
01-Oct-12 11:18 33.976478 -117.631057 179 655ft 0kts
01-Oct-12 11:19 33.975838 -117.631625 265 655ft 0kts
01-Oct-12 11:20 33.976483 -117.656077 270 1413ft 96kts
01-Oct-12 11:21 33.977668 -117.692169 289 2847ft 115kts
01-Oct-12 11:22 33.996901 -117.722223 305 4454ft 112kts
01-Oct-12 11:23 34.016366 -117.751000 304 5995ft 110kts
01-Oct-12 11:24 34.036768 -117.781497 302 7471ft 121kts
01-Oct-12 11:25 34.056172 -117.814924 304 8992ft 123kts
01-Oct-12 11:26 34.072956 -117.851897 302 10421ft 127kts
01-Oct-12 11:27 34.090056 -117.888767 296 11869ft 123kts
01-Oct-12 11:28 34.106321 -117.925587 296 12905ft 121kts
01-Oct-12 11:29 34.120430 -117.963250 300 13838ft 122kts
01-Oct-12 11:30 34.137225 -117.999539 298 14748ft 124kts
01-Oct-12 11:31 34.153558 -118.035333 299 15736ft 121kts
01-Oct-12 11:32 34.169929 -118.073150 301 16494ft 153kts
01-Oct-12 11:33 34.195368 -118.125189 299 16544ft 192kts
01-Oct-12 11:34 34.221718 -118.181529 296 16451ft 194kts
01-Oct-12 11:35 34.245546 -118.237738 296 16560ft 187kts
01-Oct-12 11:36 34.270951 -118.293767 297 16513ft 189kts
01-Oct-12 11:37 34.295318 -118.350090 296 16503ft 189kts
01-Oct-12 11:38 34.319354 -118.406294 294 16554ft 188kts
01-Oct-12 11:39 34.342628 -118.462655 293 16584ft 187kts
01-Oct-12 11:40 34.365302 -118.519909 293 16582ft 187kts
01-Oct-12 11:41 34.388534 -118.576755 296 16553ft 187kts
01-Oct-12 11:42 34.412178 -118.632788 292 16567ft 185kts
01-Oct-12 11:43 34.434707 -118.689594 293 16546ft 185kts
01-Oct-12 11:44 34.457107 -118.746281 291 16530ft 185kts
01-Oct-12 11:45 34.480808 -118.802014 293 16507ft 185kts
01-Oct-12 11:46 34.504757 -118.857030 292 16479ft 183kts
01-Oct-12 11:47 34.527591 -118.913417 291 16498ft 184kts
01-Oct-12 11:48 34.550526 -118.969688 293 16447ft 187kts
01-Oct-12 11:49 34.574375 -119.025343 294 16509ft 184kts
01-Oct-12 11:50 34.586564 -119.052535 294 16465ft 185kts
01-Oct-12 11:51 34.601334 -119.087063 293 16411ft 184kts
01-Oct-12 11:52 34.620407 -119.133278 294 16467ft 179kts
01-Oct-12 11:53 34.645527 -119.186269 296 16501ft 179kts
01-Oct-12 11:54 34.668607 -119.240917 292 16491ft 180kts
01-Oct-12 11:55 34.691455 -119.295554 293 16534ft 180kts
01-Oct-12 11:56 34.713437 -119.350908 294 16540ft 181kts
01-Oct-12 11:57 34.740079 -119.415878 293 16502ft 183kts
01-Oct-12 11:58 34.759478 -119.462083 294 16484ft 183kts
01-Oct-12 11:59 34.781912 -119.517843 292 16469ft 182kts
01-Oct-12 12:00 34.804076 -119.573969 292 16423ft 184kts
01-Oct-12 12:01 34.826231 -119.629203 294 16522ft 179kts
01-Oct-12 12:02 34.849522 -119.683758 295 16476ft 183kts
01-Oct-12 12:03 34.872485 -119.738646 293 16541ft 180kts
01-Oct-12 12:04 34.894174 -119.795233 291 16535ft 186kts
01-Oct-12 12:05 34.916559 -119.853090 292 16434ft 192kts
01-Oct-12 12:06 34.939705 -119.911446 293 16459ft 187kts
01-Oct-12 12:07 34.963716 -119.968790 294 16437ft 189kts
01-Oct-12 12:08 34.986191 -120.026621 291 16429ft 188kts
01-Oct-12 12:09 35.006515 -120.076751 293 14902ft 160kts
01-Oct-12 12:10 35.026626 -120.125671 294 13062ft 164kts
01-Oct-12 12:11 35.047217 -120.174824 295 11261ft 164kts
01-Oct-12 12:12 35.067498 -120.223912 295 9429ft 162kts
01-Oct-12 12:13 35.087108 -120.272774 296 7572ft 160kts
01-Oct-12 12:14 35.106467 -120.320885 297 5672ft 153kts
01-Oct-12 12:15 35.125283 -120.367088 296 4387ft 157kts
01-Oct-12 12:16 35.142456 -120.412654 294 4063ft 138kts
01-Oct-12 12:17 35.158029 -120.455127 293 3340ft 133kts
01-Oct-12 12:18 35.171035 -120.497083 292 2683ft 127kts
01-Oct-12 12:19 35.183464 -120.536917 292 2197ft 122kts
01-Oct-12 12:20 35.197278 -120.571296 305 1720ft 108kts
01-Oct-12 12:21 35.214095 -120.600329 302 1043ft 95kts
01-Oct-12 12:22 35.227869 -120.624543 302 477ft 82kts
01-Oct-12 12:23 35.237754 -120.642202 273 215ft 10kts
01-Oct-12 12:24 35.237455 -120.642962 252 215ft 6kts
01-Oct-12 12:25 35.238490 -120.645481 302 215ft 9kts
01-Oct-12 12:26 35.238963 -120.646971 198 215ft 0kts
01-Oct-12 12:27 35.238951 -120.646973 188 215ft 0kts
01-Oct-12 12:28 35.238951 -120.646973 188 215ft 0kts
01-Oct-12 12:29 35.238951 -120.646973 188 215ft 0kts
01-Oct-12 12:30 35.238951 -120.646973 188 215ft 0kts
01-Oct-12 12:31 35.238951 -120.646973 188 215ft 0kts
01-Oct-12 12:32 35.238951 -120.646973 188 215ft 0kts
01-Oct-12 12:33 35.238951 -120.646973 188 215ft 0kts
01-Oct-12 12:34 35.238951 -120.646973 188 215ft 0kts
01-Oct-12 12:35 35.238951 -120.646973 188 215ft 0kts
01-Oct-12 12:36 35.238951 -120.646973 188 215ft 0kts
01-Oct-12 12:37 35.238951 -120.646973 188 215ft 0kts

Navigation Log

Ident Type
Flight plan parsing failed, navigation log unavailable